createdAt,value
2017-06-23T00:00:51.027Z,53.10
2017-06-23T00:03:17.974Z,53.60
2017-06-23T00:05:44.613Z,53.30
2017-06-23T00:08:12.315Z,53.70
2017-06-23T00:10:39.935Z,53.70
2017-06-23T00:13:06.572Z,54.00
2017-06-23T00:15:33.389Z,54.30
2017-06-23T00:18:00.024Z,53.70
2017-06-23T00:20:27.210Z,55.40
2017-06-23T00:22:53.888Z,57.30
2017-06-23T00:25:21.021Z,59.40
2017-06-23T00:27:47.568Z,60.00
2017-06-23T00:30:15.089Z,60.50
2017-06-23T00:32:42.522Z,61.30
2017-06-23T00:35:09.181Z,60.40
2017-06-23T00:37:35.818Z,59.30
2017-06-23T00:40:02.458Z,58.90
2017-06-23T00:42:29.094Z,59.20
2017-06-23T00:44:55.733Z,59.90
2017-06-23T00:47:22.971Z,58.80
2017-06-23T00:49:49.600Z,58.00
2017-06-23T00:52:16.232Z,58.00
2017-06-23T00:54:42.944Z,57.30
2017-06-23T00:57:09.638Z,56.20
2017-06-23T00:59:36.277Z,56.20
2017-06-23T01:02:02.794Z,55.50
2017-06-23T01:04:29.529Z,55.00
2017-06-23T01:06:56.820Z,54.20
2017-06-23T01:09:23.619Z,53.50
2017-06-23T01:12:05.236Z,54.20
2017-06-23T01:14:31.846Z,53.90
2017-06-23T01:16:59.108Z,53.20
2017-06-23T01:19:26.217Z,53.20
2017-06-23T01:21:53.016Z,53.60
2017-06-23T01:24:19.629Z,53.30
2017-06-23T01:26:46.293Z,53.30
2017-06-23T01:29:13.546Z,53.20
2017-06-23T01:31:40.157Z,53.10
2017-06-23T01:34:07.408Z,53.80
2017-06-23T01:36:34.073Z,53.90
2017-06-23T01:39:01.339Z,54.00
2017-06-23T01:41:28.781Z,54.60
2017-06-23T01:43:55.419Z,54.60
2017-06-23T01:46:22.665Z,54.60
2017-06-23T01:48:49.284Z,55.30
2017-06-23T01:51:16.419Z,55.70
2017-06-23T01:53:43.200Z,55.70
2017-06-23T01:56:10.351Z,55.60
2017-06-23T01:58:37.093Z,56.00
2017-06-23T02:01:04.344Z,56.00
2017-06-23T02:03:30.981Z,56.40
2017-06-23T02:05:57.723Z,57.10
2017-06-23T02:08:24.332Z,56.40
2017-06-23T02:10:50.997Z,56.70
2017-06-23T02:13:17.599Z,56.70
2017-06-23T02:15:44.271Z,56.50
2017-06-23T02:18:11.014Z,55.80
2017-06-23T02:20:37.651Z,56.50
2017-06-23T02:23:05.488Z,56.20
2017-06-23T02:25:32.130Z,56.00
2017-06-23T02:27:59.614Z,56.80
2017-06-23T02:30:26.252Z,56.40
2017-06-23T02:32:55.795Z,55.90
2017-06-23T02:35:23.622Z,56.20
2017-06-23T02:37:51.611Z,56.80
2017-06-23T02:40:33.046Z,56.30
2017-06-23T02:43:14.337Z,56.20
2017-06-23T02:45:56.699Z,56.20
2017-06-23T02:48:38.383Z,56.30
2017-06-23T02:51:19.766Z,56.50
2017-06-23T02:54:01.210Z,57.60
2017-06-23T02:56:42.536Z,57.10
2017-06-23T02:59:23.975Z,57.00
2017-06-23T03:01:50.731Z,57.40
2017-06-23T03:04:32.374Z,57.50
2017-06-23T03:07:14.013Z,57.60
2017-06-23T03:09:55.527Z,57.60
2017-06-23T03:12:37.564Z,57.40
2017-06-23T03:15:18.997Z,57.60
2017-06-23T03:18:00.986Z,57.60
2017-06-23T03:20:42.455Z,58.20
2017-06-23T03:23:09.102Z,58.30
2017-06-23T03:25:35.739Z,58.40
2017-06-23T03:28:02.457Z,58.60
2017-06-23T03:30:29.094Z,58.20
2017-06-23T03:32:56.613Z,58.00
2017-06-23T03:35:23.417Z,58.40
2017-06-23T03:37:50.029Z,57.90
2017-06-23T03:40:16.693Z,58.70
2017-06-23T03:42:43.305Z,58.80
2017-06-23T03:45:09.941Z,57.90
2017-06-23T03:47:36.476Z,58.30
2017-06-23T03:50:03.216Z,58.30
2017-06-23T03:52:29.882Z,58.30
2017-06-23T03:54:56.493Z,58.00
2017-06-23T03:57:23.158Z,59.00
2017-06-23T04:00:10.225Z,59.80
2017-06-23T04:02:36.913Z,59.90
2017-06-23T04:05:04.685Z,60.40
2017-06-23T04:07:31.419Z,60.10
2017-06-23T04:09:58.032Z,60.60
2017-06-23T04:12:24.695Z,60.20
2017-06-23T04:14:52.189Z,60.10
2017-06-23T04:17:19.609Z,60.00
2017-06-23T04:19:46.222Z,59.40
2017-06-23T04:22:12.884Z,58.70
2017-06-23T04:24:39.733Z,58.80
2017-06-23T04:27:07.183Z,58.70
2017-06-23T04:29:35.054Z,58.60
2017-06-23T04:32:01.689Z,58.90
2017-06-23T04:34:28.299Z,58.70
2017-06-23T04:36:56.807Z,58.90
2017-06-23T04:39:24.468Z,58.50
2017-06-23T04:41:51.081Z,59.00
2017-06-23T04:44:18.380Z,58.30
2017-06-23T04:46:45.795Z,58.60
2017-06-23T04:49:12.428Z,58.60
2017-06-23T04:51:39.091Z,59.10
2017-06-23T04:54:05.730Z,59.60
2017-06-23T04:56:32.367Z,58.70
2017-06-23T04:58:59.001Z,59.20
2017-06-23T05:01:25.617Z,60.60
2017-06-23T05:03:52.299Z,61.20
2017-06-23T05:06:19.738Z,61.70
2017-06-23T05:08:46.782Z,61.70
2017-06-23T05:11:13.732Z,61.80
2017-06-23T05:13:40.368Z,59.90
2017-06-23T05:16:07.006Z,59.20
2017-06-23T05:18:33.621Z,59.10
2017-06-23T05:21:00.881Z,58.60
2017-06-23T05:23:27.636Z,58.90
2017-06-23T05:25:54.274Z,58.40
2017-06-23T05:28:20.913Z,57.70
2017-06-23T05:30:47.423Z,57.90
2017-06-23T05:33:14.129Z,58.20
2017-06-23T05:35:42.064Z,57.90
2017-06-23T05:38:09.717Z,58.50
2017-06-23T05:40:36.458Z,58.40
2017-06-23T05:43:03.069Z,58.60
2017-06-23T05:45:29.704Z,59.20
2017-06-23T05:47:56.346Z,59.70
2017-06-23T05:50:23.008Z,59.50
2017-06-23T05:52:50.145Z,59.60
2017-06-23T05:55:16.898Z,59.10
2017-06-23T05:57:43.537Z,59.20
2017-06-23T06:00:10.153Z,59.20
2017-06-23T06:02:36.812Z,59.00
2017-06-23T06:05:03.425Z,58.50
2017-06-23T06:07:30.059Z,58.20
2017-06-23T06:09:56.725Z,58.00
2017-06-23T06:12:23.365Z,57.60
2017-06-23T06:15:05.469Z,58.10
2017-06-23T06:17:32.209Z,57.80
2017-06-23T06:19:58.724Z,57.30
2017-06-23T06:22:25.482Z,57.10
2017-06-23T06:24:52.097Z,57.20
2017-06-23T06:27:18.728Z,56.80
2017-06-23T06:29:46.011Z,56.80
2017-06-23T06:32:12.646Z,56.40
2017-06-23T06:34:39.285Z,56.50
2017-06-23T06:37:06.488Z,56.10
2017-06-23T06:39:33.174Z,56.20
2017-06-23T06:41:59.812Z,56.20
2017-06-23T06:44:26.450Z,55.30
2017-06-23T06:46:53.088Z,54.90
2017-06-23T06:49:19.707Z,54.90
2017-06-23T06:51:46.364Z,54.80
2017-06-23T06:54:13.002Z,55.30
2017-06-23T06:56:39.615Z,55.80
2017-06-23T06:59:06.224Z,55.30
2017-06-23T07:01:32.998Z,54.90
2017-06-23T07:03:59.657Z,53.80
2017-06-23T07:06:26.782Z,53.40
2017-06-23T07:08:53.422Z,52.40
2017-06-23T07:11:20.084Z,52.00
2017-06-23T07:13:47.337Z,52.60
2017-06-23T07:16:13.944Z,52.20
2017-06-23T07:18:40.611Z,50.70
2017-06-23T07:21:07.248Z,50.40
2017-06-23T07:23:33.860Z,49.40
2017-06-23T07:26:00.496Z,49.00
2017-06-23T07:28:27.163Z,47.70
2017-06-23T07:30:53.804Z,46.80
2017-06-23T07:33:20.414Z,47.70
2017-06-23T07:35:47.075Z,47.30
2017-06-23T07:38:13.714Z,46.40
2017-06-23T07:40:40.324Z,45.80
2017-06-23T07:43:06.990Z,45.20
2017-06-23T07:45:33.600Z,46.10
2017-06-23T07:48:00.192Z,45.60
2017-06-23T07:50:27.361Z,45.00
2017-06-23T07:52:54.155Z,45.80
2017-06-23T07:55:20.860Z,46.20
2017-06-23T07:57:47.637Z,46.60
2017-06-23T08:00:14.286Z,47.20
2017-06-23T08:02:41.708Z,46.40
2017-06-23T08:05:08.371Z,46.40
2017-06-23T08:07:35.417Z,47.50
2017-06-23T08:10:02.129Z,46.70
2017-06-23T08:12:28.896Z,46.40
2017-06-23T08:14:55.536Z,45.70
2017-06-23T08:17:22.173Z,46.10
2017-06-23T08:19:48.785Z,46.40
2017-06-23T08:22:15.448Z,47.30
2017-06-23T08:24:42.578Z,46.30
2017-06-23T08:27:09.318Z,46.00
2017-06-23T08:29:37.214Z,45.90
2017-06-23T08:32:04.662Z,46.40
2017-06-23T08:34:32.102Z,45.80
2017-06-23T08:36:58.761Z,44.80
2017-06-23T08:39:26.189Z,47.00
2017-06-23T08:41:52.855Z,46.90
2017-06-23T08:44:19.953Z,45.80
2017-06-23T08:46:46.642Z,44.60
2017-06-23T08:49:14.340Z,46.60
2017-06-23T08:51:41.146Z,46.60
2017-06-23T08:54:07.784Z,45.50
2017-06-23T08:56:35.071Z,42.80
2017-06-23T08:59:01.880Z,41.30
2017-06-23T09:01:28.523Z,39.80
2017-06-23T09:03:55.360Z,38.50
2017-06-23T09:06:22.624Z,37.90
2017-06-23T09:08:50.040Z,38.60
2017-06-23T09:11:16.706Z,38.60
2017-06-23T09:13:43.345Z,37.30
2017-06-23T09:16:09.962Z,36.90
2017-06-23T09:18:36.620Z,37.90
2017-06-23T09:21:03.237Z,38.40
2017-06-23T09:23:29.900Z,36.30
2017-06-23T09:25:57.357Z,37.10
2017-06-23T09:28:23.995Z,37.20
2017-06-23T09:30:50.609Z,38.00
2017-06-23T09:33:17.248Z,36.20
2017-06-23T09:35:44.526Z,36.20
2017-06-23T09:38:11.160Z,36.00
2017-06-23T09:40:37.731Z,38.20
2017-06-23T09:43:04.746Z,36.20
2017-06-23T09:45:31.382Z,35.20
2017-06-23T09:47:59.203Z,35.40
2017-06-23T09:50:25.886Z,35.40
2017-06-23T09:52:53.056Z,36.50
2017-06-23T09:55:19.776Z,34.10
2017-06-23T09:57:46.516Z,32.50
2017-06-23T10:00:13.332Z,33.40
2017-06-23T10:02:40.442Z,33.10
2017-06-23T10:05:07.145Z,34.10
2017-06-23T10:07:33.784Z,33.00
2017-06-23T10:10:00.422Z,34.80
2017-06-23T10:12:27.059Z,35.10
2017-06-23T10:14:53.669Z,32.50
2017-06-23T10:17:20.335Z,31.10
2017-06-23T10:19:47.657Z,30.20
2017-06-23T10:22:14.328Z,30.80
2017-06-23T10:24:41.990Z,31.80
2017-06-23T10:27:09.483Z,29.70
2017-06-23T10:29:36.289Z,29.10
2017-06-23T10:32:03.105Z,28.80
2017-06-23T10:34:29.769Z,28.60
2017-06-23T10:36:56.407Z,27.10
2017-06-23T10:39:23.025Z,27.70
2017-06-23T10:41:49.703Z,27.00
2017-06-23T10:44:16.423Z,27.20
2017-06-23T10:46:43.063Z,27.60
2017-06-23T10:49:09.674Z,28.40
2017-06-23T10:51:36.416Z,30.20
2017-06-23T10:54:03.623Z,32.60
2017-06-23T10:56:30.307Z,34.00
2017-06-23T10:58:56.967Z,34.30
2017-06-23T11:01:23.707Z,35.50
2017-06-23T11:03:50.463Z,34.90
2017-06-23T11:06:19.132Z,35.70
2017-06-23T11:08:45.787Z,35.70
2017-06-23T11:11:14.131Z,36.40
2017-06-23T11:13:41.224Z,36.40
2017-06-23T11:16:07.905Z,36.10
2017-06-23T11:18:34.566Z,35.40
2017-06-23T11:21:01.228Z,36.80
2017-06-23T11:23:29.405Z,36.00
2017-06-23T11:25:56.119Z,36.00
2017-06-23T11:28:22.720Z,36.60
2017-06-23T11:30:49.418Z,36.50
2017-06-23T11:33:16.835Z,37.60
2017-06-23T11:35:43.513Z,37.60
2017-06-23T11:38:11.466Z,37.70
2017-06-23T11:40:38.200Z,37.10
2017-06-23T11:43:04.861Z,37.10
2017-06-23T11:45:32.297Z,36.90
2017-06-23T11:47:58.928Z,36.90
2017-06-23T11:50:26.812Z,37.20
2017-06-23T11:52:53.461Z,37.50
2017-06-23T11:55:21.942Z,38.90
2017-06-23T11:57:49.817Z,39.00
2017-06-23T12:00:16.453Z,39.00
2017-06-23T12:02:43.903Z,38.60
2017-06-23T12:05:11.366Z,38.50
2017-06-23T12:07:38.818Z,37.50
2017-06-23T12:10:06.276Z,37.50
2017-06-23T12:12:33.735Z,37.90
2017-06-23T12:15:01.190Z,38.60
2017-06-23T12:17:28.647Z,38.00
2017-06-23T12:19:56.082Z,38.20
2017-06-23T12:22:22.746Z,38.20
2017-06-23T12:24:51.106Z,39.00
2017-06-23T12:27:17.861Z,39.00
2017-06-23T12:29:45.318Z,39.10
2017-06-23T12:32:12.759Z,39.50
2017-06-23T12:34:39.413Z,39.50
2017-06-23T12:37:06.843Z,38.30
2017-06-23T12:39:34.122Z,38.30
2017-06-23T12:42:01.520Z,39.30
2017-06-23T12:44:28.219Z,39.30
2017-06-23T12:46:54.957Z,40.10
2017-06-23T12:49:22.387Z,39.30
2017-06-23T12:51:49.053Z,39.30
2017-06-23T12:54:17.708Z,39.30
2017-06-23T12:56:44.376Z,39.30
2017-06-23T12:59:11.835Z,40.40
2017-06-23T13:01:39.270Z,39.90
2017-06-23T13:04:06.442Z,40.00
2017-06-23T13:06:33.181Z,39.50
2017-06-23T13:09:00.613Z,39.30
2017-06-23T13:11:27.892Z,39.30
2017-06-23T13:13:55.284Z,39.70
2017-06-23T13:16:23.048Z,39.60
2017-06-23T13:18:49.725Z,40.20
2017-06-23T13:21:16.392Z,40.00
2017-06-23T13:23:43.845Z,40.10
2017-06-23T13:26:12.208Z,38.70
2017-06-23T13:28:38.964Z,38.70
2017-06-23T13:31:06.421Z,39.00
2017-06-23T13:33:33.824Z,39.20
2017-06-23T13:36:00.517Z,39.20
2017-06-23T13:38:27.949Z,39.00
2017-06-23T13:40:54.586Z,39.00
2017-06-23T13:43:21.251Z,40.10
2017-06-23T13:45:48.682Z,40.30
2017-06-23T13:48:15.345Z,40.30
2017-06-23T13:50:42.802Z,39.80
2017-06-23T13:53:10.268Z,39.30
2017-06-23T13:55:37.690Z,39.90
2017-06-23T13:58:04.344Z,39.90
2017-06-23T14:00:32.910Z,39.30
2017-06-23T14:02:59.860Z,39.10
2017-06-23T14:05:26.568Z,39.40
2017-06-23T14:07:54.082Z,39.00
2017-06-23T14:10:21.723Z,39.60
2017-06-23T14:12:48.340Z,39.50
2017-06-23T14:15:15.838Z,39.40
2017-06-23T14:17:44.013Z,39.20
2017-06-23T14:20:10.753Z,39.20
2017-06-23T14:22:37.491Z,39.10
2017-06-23T14:25:05.422Z,38.90
2017-06-23T14:27:32.408Z,38.90
2017-06-23T14:30:04.721Z,37.30
2017-06-23T14:32:33.888Z,36.30
2017-06-23T14:35:00.616Z,36.30
2017-06-23T14:37:27.211Z,36.30
2017-06-23T14:39:53.891Z,35.50
2017-06-23T14:42:21.553Z,35.40
2017-06-23T14:44:49.011Z,35.90
2017-06-23T14:47:17.045Z,36.30
2017-06-23T14:49:44.339Z,36.20
2017-06-23T14:52:12.927Z,36.50
2017-06-23T14:54:39.658Z,36.60
2017-06-23T14:57:07.115Z,34.80
2017-06-23T14:59:34.552Z,35.50
2017-06-23T15:02:02.081Z,35.50
2017-06-23T15:04:28.873Z,34.90
2017-06-23T15:06:56.329Z,35.10
2017-06-23T15:09:23.763Z,35.10
2017-06-23T15:11:50.424Z,35.10
2017-06-23T15:14:17.815Z,35.70
2017-06-23T15:16:45.136Z,35.70
2017-06-23T15:19:12.565Z,35.10
2017-06-23T15:21:39.230Z,35.10
2017-06-23T15:24:06.662Z,35.60
2017-06-23T15:26:33.283Z,35.60
2017-06-23T15:28:59.936Z,35.10
2017-06-23T15:31:26.601Z,35.50
2017-06-23T15:33:53.339Z,35.40
2017-06-23T15:36:21.637Z,35.00
2017-06-23T15:38:48.340Z,35.00
2017-06-23T15:41:15.097Z,35.30
2017-06-23T15:43:42.556Z,34.00
2017-06-23T15:46:09.983Z,35.20
2017-06-23T15:48:37.191Z,34.60
2017-06-23T15:51:03.902Z,34.00
2017-06-23T15:53:31.239Z,34.70
2017-06-23T15:55:57.998Z,34.70
2017-06-23T15:58:25.388Z,35.10
2017-06-23T16:00:52.091Z,35.10
2017-06-23T16:03:18.811Z,35.20
2017-06-23T16:05:45.445Z,34.80
2017-06-23T16:08:12.080Z,34.50
2017-06-23T16:10:39.292Z,34.20
2017-06-23T16:13:05.999Z,34.20
2017-06-23T16:15:34.276Z,34.60
2017-06-23T16:18:01.709Z,34.60
2017-06-23T16:20:28.371Z,34.60
2017-06-23T16:22:55.829Z,33.40
2017-06-23T16:25:23.284Z,33.20
2017-06-23T16:27:50.741Z,33.20
2017-06-23T16:30:17.487Z,33.20
2017-06-23T16:32:44.222Z,34.10
2017-06-23T16:35:11.679Z,34.00
2017-06-23T16:37:39.139Z,34.90
2017-06-23T16:40:05.776Z,34.80
2017-06-23T16:42:33.232Z,34.20
2017-06-23T16:45:00.628Z,34.50
2017-06-23T16:47:27.327Z,34.50
2017-06-23T16:49:54.783Z,34.60
2017-06-23T16:52:22.762Z,34.70
2017-06-23T16:54:50.184Z,34.70
2017-06-23T16:57:16.821Z,34.70
2017-06-23T16:59:43.464Z,33.40
2017-06-23T17:02:10.763Z,33.20
2017-06-23T17:04:37.452Z,33.70
2017-06-23T17:07:04.117Z,34.20
2017-06-23T17:09:31.575Z,34.40
2017-06-23T17:11:59.239Z,34.70
2017-06-23T17:14:27.310Z,33.90
2017-06-23T17:16:53.921Z,33.90
2017-06-23T17:19:20.559Z,34.70
2017-06-23T17:21:47.718Z,34.80
2017-06-23T17:24:15.590Z,35.20
2017-06-23T17:26:42.172Z,35.50
2017-06-23T17:29:08.852Z,35.10
2017-06-23T17:31:35.468Z,35.60
2017-06-23T17:34:02.152Z,36.30
2017-06-23T17:36:29.609Z,36.90
2017-06-23T17:38:57.272Z,36.30
2017-06-23T17:41:24.729Z,36.10
2017-06-23T17:43:52.185Z,35.50
2017-06-23T17:46:20.114Z,36.30
2017-06-23T17:48:46.895Z,35.80
2017-06-23T17:51:14.974Z,35.90
2017-06-23T17:53:42.423Z,36.00
2017-06-23T17:56:09.857Z,35.60
2017-06-23T17:58:36.518Z,35.60
2017-06-23T18:01:03.948Z,36.50
2017-06-23T18:03:30.806Z,36.50
2017-06-23T18:05:58.247Z,36.10
2017-06-23T18:08:24.914Z,35.50
2017-06-23T18:10:52.371Z,36.30
2017-06-23T18:13:19.827Z,36.50
2017-06-23T18:15:47.863Z,36.40
2017-06-23T18:18:14.513Z,36.30
2017-06-23T18:20:41.124Z,36.90
2017-06-23T18:23:07.813Z,37.20
2017-06-23T18:25:35.258Z,37.50
2017-06-23T18:28:01.909Z,37.50
2017-06-23T18:30:29.323Z,37.90
2017-06-23T18:32:55.988Z,37.90
2017-06-23T18:35:22.720Z,38.20
2017-06-23T18:37:49.485Z,38.30
2017-06-23T18:40:16.808Z,38.10
2017-06-23T18:42:43.580Z,38.10
2017-06-23T18:45:11.038Z,38.50
2017-06-23T18:47:37.593Z,38.50
2017-06-23T18:50:04.809Z,39.20
2017-06-23T18:52:31.566Z,38.30
2017-06-23T18:54:59.638Z,38.50
2017-06-23T18:57:27.094Z,38.30
2017-06-23T18:59:54.552Z,38.60
2017-06-23T19:02:22.580Z,38.90
2017-06-23T19:04:49.261Z,38.90
2017-06-23T19:07:16.670Z,39.80
2017-06-23T19:09:43.907Z,39.70
2017-06-23T19:12:10.609Z,40.00
2017-06-23T19:14:38.065Z,40.40
2017-06-23T19:17:05.523Z,40.20
2017-06-23T19:19:32.956Z,40.50
2017-06-23T19:21:59.978Z,40.40
2017-06-23T19:24:26.665Z,40.20
2017-06-23T19:26:54.122Z,40.60
2017-06-23T19:29:20.697Z,40.60
2017-06-23T19:31:47.372Z,41.00
2017-06-23T19:34:14.012Z,41.30
2017-06-23T19:36:41.495Z,41.70
2017-06-23T19:39:08.916Z,43.00
2017-06-23T19:41:35.591Z,42.20
2017-06-23T19:44:05.092Z,42.40
2017-06-23T19:46:31.895Z,43.00
2017-06-23T19:48:58.568Z,42.80
2017-06-23T19:51:25.523Z,42.60
2017-06-23T19:53:52.976Z,42.50
2017-06-23T19:56:20.434Z,42.60
2017-06-23T19:58:48.317Z,43.00
2017-06-23T20:01:15.981Z,42.90
2017-06-23T20:03:42.804Z,43.60
2017-06-23T20:06:09.977Z,43.10
2017-06-23T20:08:36.731Z,42.70
2017-06-23T20:11:03.439Z,43.10
2017-06-23T20:13:31.715Z,42.50
2017-06-23T20:15:59.544Z,42.50
2017-06-23T20:18:26.217Z,42.50
2017-06-23T20:20:54.540Z,43.20
2017-06-23T20:23:21.336Z,43.10
2017-06-23T20:25:49.612Z,43.60
2017-06-23T20:28:17.274Z,43.50
2017-06-23T20:30:44.731Z,43.60
2017-06-23T20:33:12.492Z,43.60
2017-06-23T20:35:39.953Z,43.20
2017-06-23T20:38:07.468Z,43.10
2017-06-23T20:40:34.151Z,43.60
2017-06-23T20:43:01.483Z,44.00
2017-06-23T20:45:28.425Z,44.00
2017-06-23T20:47:55.060Z,44.30
2017-06-23T20:50:21.932Z,44.10
2017-06-23T20:52:48.569Z,44.50
2017-06-23T20:55:16.529Z,45.20
2017-06-23T20:57:43.149Z,45.20
2017-06-23T21:00:10.838Z,45.20
2017-06-23T21:02:38.295Z,44.80
2017-06-23T21:05:05.636Z,44.90
2017-06-23T21:07:32.367Z,44.80
2017-06-23T21:09:59.028Z,44.70
2017-06-23T21:12:26.486Z,44.10
2017-06-23T21:14:54.558Z,44.30
2017-06-23T21:17:22.013Z,44.50
2017-06-23T21:19:50.016Z,44.60
2017-06-23T21:22:16.668Z,44.60
2017-06-23T21:24:43.361Z,44.60
2017-06-23T21:27:11.271Z,45.00
2017-06-23T21:29:38.071Z,44.90
2017-06-23T21:32:05.528Z,45.20
2017-06-23T21:34:32.947Z,44.90
2017-06-23T21:37:00.239Z,44.90
2017-06-23T21:39:27.695Z,45.10
2017-06-23T21:41:56.186Z,45.70
2017-06-23T21:44:23.633Z,45.60
2017-06-23T21:46:51.091Z,46.00
2017-06-23T21:49:18.512Z,46.40
2017-06-23T21:51:45.067Z,46.40
2017-06-23T21:54:11.899Z,46.10
2017-06-23T21:56:39.389Z,46.50
2017-06-23T21:59:05.972Z,47.10
2017-06-23T22:01:33.266Z,47.70
2017-06-23T22:04:00.673Z,47.10
2017-06-23T22:06:27.559Z,47.80
2017-06-23T22:08:54.881Z,46.90
2017-06-23T22:11:21.688Z,46.50
2017-06-23T22:13:48.456Z,46.60
2017-06-23T22:16:16.098Z,46.30
2017-06-23T22:18:42.812Z,46.40
2017-06-23T22:21:10.472Z,46.80
2017-06-23T22:23:38.695Z,46.80
2017-06-23T22:26:05.361Z,46.70
2017-06-23T22:28:32.012Z,47.00
2017-06-23T22:30:58.598Z,47.20
2017-06-23T22:33:25.291Z,47.40
2017-06-23T22:35:54.428Z,46.80
2017-06-23T22:38:22.776Z,47.70
2017-06-23T22:40:50.160Z,48.20
2017-06-23T22:43:16.857Z,47.40
2017-06-23T22:45:43.425Z,47.60
2017-06-23T22:48:11.076Z,47.30
2017-06-23T22:50:37.728Z,47.10
2017-06-23T22:53:04.813Z,48.20
2017-06-23T22:55:31.488Z,48.20
2017-06-23T22:58:00.060Z,48.70
2017-06-23T23:00:26.781Z,48.50
2017-06-23T23:02:54.761Z,49.10
2017-06-23T23:05:22.008Z,49.10
2017-06-23T23:07:49.700Z,49.40
2017-06-23T23:10:16.413Z,50.50
2017-06-23T23:12:43.639Z,50.00
2017-06-23T23:15:10.507Z,49.80
2017-06-23T23:17:37.145Z,49.60
2017-06-23T23:20:03.771Z,49.90
2017-06-23T23:22:30.551Z,51.40
2017-06-23T23:24:58.007Z,50.40
2017-06-23T23:27:25.466Z,50.20
2017-06-23T23:29:52.922Z,50.10
2017-06-23T23:32:19.544Z,50.10
2017-06-23T23:34:46.240Z,50.40
2017-06-23T23:37:12.940Z,50.60
2017-06-23T23:39:39.575Z,51.10
2017-06-23T23:42:07.032Z,50.40
2017-06-23T23:44:34.464Z,50.70
2017-06-23T23:47:01.127Z,50.60
2017-06-23T23:49:28.590Z,51.00
2017-06-23T23:51:55.172Z,50.90
2017-06-23T23:54:21.736Z,51.30
2017-06-23T23:56:48.498Z,50.60
2017-06-23T23:59:15.927Z,51.10
